Boone, IA

7:14 AM CDT on August 28, 2014 (GMT -0500)
Boone Municipal | Change Station
CLOSE
Current Station
Airport
Location: Boone,
Elevation: 1161 ft
Nearby Weather Stations

Elev 1161 ft 42.05 °N, 93.85 °W | Updated 19 minutes ago

Mostly Cloudy
Mostly Cloudy
66 °F
Feels Like 66 °F
N
8
Wind Variable Wind from ESE

Today
High -- | Low -- °F
--% Chance of Precip.
Yesterday
High -- | Low -- °F
Precip. -- in
6:36 AM 7:55 PM
Waxing Crescent, 8% visible
Pressure 30.04 in
Visibility 7.0 miles
Clouds Few 400 ft
Scattered Clouds 3100 ft
Mostly Cloudy 7500 ft
Dew Point 64 °F
Humidity 94%
Rainfall 0.14 in
Snow Depth Not available.
UV 0 out of 12
Pollen 1.10 out of 12
Air Quality Not available.
Flu Activity Not available.
METAR KBNW 281155Z AUTO 12007KT 7SM FEW004 SCT031 BKN075 19/18 A3004 RMK AO2 P0009

More Conditions Fewer Conditions

Pressure 30.04 in
Visibility 7.0 miles
Clouds Few 400 ft
Scattered Clouds 3100 ft
Mostly Cloudy 7500 ft
Dew Point 64 °F
Humidity 94%
Rainfall 0.14 in
Snow Depth Not available.
UV 0 out of 12
Pollen 1.10 out of 12
Air Quality Not available.
Flu Activity Not available.
METAR KBNW 281155Z AUTO 12007KT 7SM FEW004 SCT031 BKN075 19/18 A3004 RMK AO2 P0009

More Conditions Fewer Conditions

10-Day Weather Forecast

Almanac

Astronomy

Aug. 28, 2014 Rise Set
Actual Time 6:36 AM CDT 7:55 PM CDT
Civil Twilight 6:07 AM CDT 8:24 PM CDT
Nautical Twilight 5:33 AM CDT 8:59 PM CDT
Astronomical Twilight 4:56 AM CDT 9:36 PM CDT
Moon 9:33 AM CDT 9:16 PM CDT
Length of Visible Light 14h 16m
Length of Day
13h 18m
Tomorrow will be 2m 40s shorter.
Waxing Crescent, 8% of the Moon is Illuminated
Today
Waxing Crescent
Sep 2
First Quarter
Sep 8
Full
Sep 15
Last Quarter
Sep 24
New

Today's Extremes

State Highs State Lows

Community

WunderPhotos

Upload Photos

1,747,932 photos uploaded!

Nearby

Snow Depth

Station Depth Elevation
No new snow has been reported.

Earthquake Activity

City Distance Mag. Time & Date
No recent earthquake activity has been reported nearby.
Minimum magnitude displayed is 2.5.

Coastal Water Temperatures

Place Temperature
No Stations Reporting

Nearby Weather Stations